Weather at Gaziemir Air Base

Public forecast

Using degrees Celsius for public forecast. Weather courtesy of forecast.io.

Current aviation weather report (METAR) for Gaziemir Air Base

Report is more than 6 hours old.

Retrieved 2018/09/17 11:50 UTC (3 years ago):

LTBK 171150Z 36014KT 9999 FEW030 32/12 Q1015

Closest aviation forecast (TAF) to Gaziemir Air Base

Closest forecast is Adnan Menderes International Airport, 1.6 nm (3.0 km) S. Retrieved 2021/04/17 12:03 UTC (3 hours ago):

TAF LTBJ 171040Z 1712/1812 18020G40KT CAVOK BECMG 1716/1718 16012KT BECMG 1720/1722 SCT035 BKN100 TEMPO 1722/1802 -SHRA BECMG 1800/1803 VRB02KT BECMG 1806/1809 16018G35KT